Round Grove, Illinois
Current Conditions -  °F | °C
As of 11:55 AM on Saturday 20 Dec 2014 (Local Time) from KSQI Reporting Station
Overcast Overcast  
Wind Chill: 24°   Ceiling: 3300
Heat Index: 30°   Visibility: 8mi
Dew Point: 25°   Wind: 6mph
Humidity: 80%   Direction: 140°SE
Pressure: 30.26"   Gusts: NA
Location:  41.8285°N, 89.9656°W
Report Text: KSQI 201755Z 14005KT 8SM BKN033 OVC048 M01/M04 A3026 RMK AO1 11010 21020 54000
Loading
Personal Weather Stations






























Interactive Weather Map New forecast layout! Learn more

10-Day Weather Forecast

Advertisements
Track Severe Weather on mobile